Plevna, Montana
Current Conditions -  °F | °C
As of 12:51 AM on Monday 26 Jan 2015 (Local Time) from KBHK Reporting Station
Clear Clear  
Wind Chill: 26°   Ceiling: Unl
Heat Index: 35°   Visibility: 10mi
Dew Point: 31°   Wind: 14mph
Humidity: 85%   Direction: 280°W
Pressure: 29.94"   Gusts: NA
Location:  46.42°N, 104.52°W
Report Text: KBHK 260751Z AUTO 28012KT 10SM CLR 02/M01 A2994 RMK AO2 SLP154 T00171006
Loading
Personal Weather Stations






























Interactive Weather Map New forecast layout! Learn more

10-Day Weather Forecast

Advertisements
Track Severe Weather on mobile